sensor_id;sensor_type;location;lat;lon;timestamp;P1;durP1;ratioP1;P2;durP2;ratioP2
1350;SDS011;669;50.206;9.998;2023-02-22T00:00:45;1.40;;;1.30;;
1350;SDS011;669;50.206;9.998;2023-02-22T00:03:17;1.60;;;1.50;;
1350;SDS011;669;50.206;9.998;2023-02-22T00:05:53;1.70;;;1.13;;
1350;SDS011;669;50.206;9.998;2023-02-22T00:08:24;0.87;;;0.87;;
1350;SDS011;669;50.206;9.998;2023-02-22T00:10:55;1.70;;;1.60;;
1350;SDS011;669;50.206;9.998;2023-02-22T00:13:23;1.27;;;1.23;;
1350;SDS011;669;50.206;9.998;2023-02-22T00:15:54;6.30;;;1.30;;
1350;SDS011;669;50.206;9.998;2023-02-22T00:18:22;0.97;;;0.97;;
1350;SDS011;669;50.206;9.998;2023-02-22T00:20:54;2.63;;;1.23;;
1350;SDS011;669;50.206;9.998;2023-02-22T00:23:25;1.50;;;1.40;;
1350;SDS011;669;50.206;9.998;2023-02-22T00:25:55;5.60;;;1.73;;
1350;SDS011;669;50.206;9.998;2023-02-22T00:28:24;1.20;;;1.10;;
1350;SDS011;669;50.206;9.998;2023-02-22T00:30:52;1.20;;;1.03;;
1350;SDS011;669;50.206;9.998;2023-02-22T00:33:21;1.13;;;1.13;;
1350;SDS011;669;50.206;9.998;2023-02-22T00:35:48;1.43;;;1.33;;
1350;SDS011;669;50.206;9.998;2023-02-22T00:38:18;1.40;;;1.30;;
1350;SDS011;669;50.206;9.998;2023-02-22T00:40:46;0.90;;;0.90;;
1350;SDS011;669;50.206;9.998;2023-02-22T00:43:14;1.63;;;0.87;;
1350;SDS011;669;50.206;9.998;2023-02-22T00:45:42;1.80;;;1.30;;
1350;SDS011;669;50.206;9.998;2023-02-22T00:48:10;1.50;;;1.40;;
1350;SDS011;669;50.206;9.998;2023-02-22T00:50:38;8.20;;;2.20;;
1350;SDS011;669;50.206;9.998;2023-02-22T00:53:07;1.53;;;1.27;;
1350;SDS011;669;50.206;9.998;2023-02-22T00:55:37;2.13;;;1.50;;
1350;SDS011;669;50.206;9.998;2023-02-22T00:58:05;1.17;;;1.07;;
1350;SDS011;669;50.206;9.998;2023-02-22T01:00:34;1.47;;;1.20;;
1350;SDS011;669;50.206;9.998;2023-02-22T01:03:04;1.70;;;1.60;;
1350;SDS011;669;50.206;9.998;2023-02-22T01:05:33;2.03;;;1.93;;
1350;SDS011;669;50.206;9.998;2023-02-22T01:08:01;1.60;;;1.50;;
1350;SDS011;669;50.206;9.998;2023-02-22T01:10:31;1.60;;;1.50;;
1350;SDS011;669;50.206;9.998;2023-02-22T01:13:02;1.90;;;1.57;;
1350;SDS011;669;50.206;9.998;2023-02-22T01:15:34;1.50;;;1.37;;
1350;SDS011;669;50.206;9.998;2023-02-22T01:18:03;1.37;;;1.37;;
1350;SDS011;669;50.206;9.998;2023-02-22T01:20:32;1.57;;;1.47;;
1350;SDS011;669;50.206;9.998;2023-02-22T01:23:01;1.43;;;1.33;;
1350;SDS011;669;50.206;9.998;2023-02-22T01:25:32;1.23;;;1.13;;
1350;SDS011;669;50.206;9.998;2023-02-22T01:28:03;1.73;;;1.40;;
1350;SDS011;669;50.206;9.998;2023-02-22T01:30:33;1.43;;;1.33;;
1350;SDS011;669;50.206;9.998;2023-02-22T01:33:03;1.23;;;1.07;;
1350;SDS011;669;50.206;9.998;2023-02-22T01:35:33;1.50;;;1.23;;
1350;SDS011;669;50.206;9.998;2023-02-22T01:38:02;2.03;;;1.80;;
1350;SDS011;669;50.206;9.998;2023-02-22T01:40:31;1.77;;;1.40;;
1350;SDS011;669;50.206;9.998;2023-02-22T01:43:03;1.30;;;1.20;;
1350;SDS011;669;50.206;9.998;2023-02-22T01:48:26;1.80;;;1.20;;
1350;SDS011;669;50.206;9.998;2023-02-22T01:50:58;1.27;;;1.23;;
1350;SDS011;669;50.206;9.998;2023-02-22T01:53:30;1.60;;;1.50;;
1350;SDS011;669;50.206;9.998;2023-02-22T01:56:00;2.00;;;1.53;;
1350;SDS011;669;50.206;9.998;2023-02-22T01:58:31;1.30;;;1.20;;
1350;SDS011;669;50.206;9.998;2023-02-22T02:01:01;2.40;;;0.87;;
1350;SDS011;669;50.206;9.998;2023-02-22T02:03:30;1.67;;;1.10;;
1350;SDS011;669;50.206;9.998;2023-02-22T02:06:02;1.40;;;1.30;;
1350;SDS011;669;50.206;9.998;2023-02-22T02:08:40;1.70;;;1.60;;
1350;SDS011;669;50.206;9.998;2023-02-22T02:11:15;1.37;;;1.20;;
1350;SDS011;669;50.206;9.998;2023-02-22T02:13:47;2.37;;;1.17;;
1350;SDS011;669;50.206;9.998;2023-02-22T02:16:16;2.20;;;1.90;;
1350;SDS011;669;50.206;9.998;2023-02-22T02:18:47;1.20;;;1.10;;
1350;SDS011;669;50.206;9.998;2023-02-22T02:21:33;1.50;;;1.30;;
1350;SDS011;669;50.206;9.998;2023-02-22T02:24:42;2.00;;;1.43;;
1350;SDS011;669;50.206;9.998;2023-02-22T02:27:33;2.00;;;1.70;;
1350;SDS011;669;50.206;9.998;2023-02-22T02:33:24;1.83;;;1.70;;
1350;SDS011;669;50.206;9.998;2023-02-22T02:35:59;2.83;;;1.77;;
1350;SDS011;669;50.206;9.998;2023-02-22T02:38:35;1.50;;;1.40;;
1350;SDS011;669;50.206;9.998;2023-02-22T02:41:08;2.30;;;1.40;;
1350;SDS011;669;50.206;9.998;2023-02-22T02:43:39;2.07;;;1.90;;
1350;SDS011;669;50.206;9.998;2023-02-22T02:46:13;1.27;;;1.17;;
1350;SDS011;669;50.206;9.998;2023-02-22T02:48:48;1.50;;;1.20;;
1350;SDS011;669;50.206;9.998;2023-02-22T02:51:20;1.03;;;0.97;;
1350;SDS011;669;50.206;9.998;2023-02-22T02:53:50;1.50;;;1.40;;
1350;SDS011;669;50.206;9.998;2023-02-22T02:56:20;2.00;;;1.27;;
1350;SDS011;669;50.206;9.998;2023-02-22T02:58:50;1.40;;;1.30;;
1350;SDS011;669;50.206;9.998;2023-02-22T03:01:21;1.87;;;1.50;;
1350;SDS011;669;50.206;9.998;2023-02-22T03:04:08;11.60;;;1.23;;
1350;SDS011;669;50.206;9.998;2023-02-22T03:06:59;1.97;;;1.37;;
1350;SDS011;669;50.206;9.998;2023-02-22T03:09:37;1.10;;;1.10;;
1350;SDS011;669;50.206;9.998;2023-02-22T03:12:16;2.03;;;1.40;;
1350;SDS011;669;50.206;9.998;2023-02-22T03:14:57;1.50;;;1.33;;
1350;SDS011;669;50.206;9.998;2023-02-22T03:17:36;1.10;;;1.00;;
1350;SDS011;669;50.206;9.998;2023-02-22T03:20:13;1.00;;;0.90;;
1350;SDS011;669;50.206;9.998;2023-02-22T03:22:49;1.53;;;1.43;;
1350;SDS011;669;50.206;9.998;2023-02-22T03:25:25;1.70;;;1.57;;
1350;SDS011;669;50.206;9.998;2023-02-22T03:28:01;1.70;;;1.20;;
1350;SDS011;669;50.206;9.998;2023-02-22T03:30:33;1.50;;;1.40;;
1350;SDS011;669;50.206;9.998;2023-02-22T03:33:05;1.57;;;1.47;;
1350;SDS011;669;50.206;9.998;2023-02-22T03:35:38;2.60;;;1.67;;
1350;SDS011;669;50.206;9.998;2023-02-22T03:38:10;1.50;;;1.20;;
1350;SDS011;669;50.206;9.998;2023-02-22T03:40:45;1.17;;;1.07;;
1350;SDS011;669;50.206;9.998;2023-02-22T03:43:17;1.90;;;1.50;;
1350;SDS011;669;50.206;9.998;2023-02-22T03:45:50;1.57;;;1.47;;
1350;SDS011;669;50.206;9.998;2023-02-22T03:48:21;1.30;;;1.20;;
1350;SDS011;669;50.206;9.998;2023-02-22T03:50:54;1.30;;;1.20;;
1350;SDS011;669;50.206;9.998;2023-02-22T03:53:26;1.60;;;1.50;;
1350;SDS011;669;50.206;9.998;2023-02-22T03:55:55;1.73;;;1.30;;
1350;SDS011;669;50.206;9.998;2023-02-22T03:58:25;1.07;;;1.07;;
1350;SDS011;669;50.206;9.998;2023-02-22T04:00:57;2.20;;;1.50;;
1350;SDS011;669;50.206;9.998;2023-02-22T04:03:25;2.30;;;1.60;;
1350;SDS011;669;50.206;9.998;2023-02-22T04:05:55;1.43;;;1.30;;
1350;SDS011;669;50.206;9.998;2023-02-22T04:08:23;1.30;;;1.20;;
1350;SDS011;669;50.206;9.998;2023-02-22T04:10:51;2.40;;;1.53;;
1350;SDS011;669;50.206;9.998;2023-02-22T04:13:18;1.63;;;1.30;;
1350;SDS011;669;50.206;9.998;2023-02-22T04:15:46;1.70;;;1.60;;
1350;SDS011;669;50.206;9.998;2023-02-22T04:18:14;1.40;;;1.30;;
1350;SDS011;669;50.206;9.998;2023-02-22T04:20:42;2.70;;;1.40;;
1350;SDS011;669;50.206;9.998;2023-02-22T04:23:12;1.47;;;1.13;;
1350;SDS011;669;50.206;9.998;2023-02-22T04:25:42;2.50;;;1.40;;
1350;SDS011;669;50.206;9.998;2023-02-22T04:28:10;1.97;;;1.63;;
1350;SDS011;669;50.206;9.998;2023-02-22T04:30:38;1.90;;;1.30;;
1350;SDS011;669;50.206;9.998;2023-02-22T04:33:06;2.10;;;1.60;;
1350;SDS011;669;50.206;9.998;2023-02-22T04:35:34;1.70;;;1.40;;
1350;SDS011;669;50.206;9.998;2023-02-22T04:38:02;1.80;;;1.47;;
1350;SDS011;669;50.206;9.998;2023-02-22T04:40:31;1.27;;;1.20;;
1350;SDS011;669;50.206;9.998;2023-02-22T04:42:59;1.40;;;1.30;;
1350;SDS011;669;50.206;9.998;2023-02-22T04:45:27;1.50;;;1.40;;
1350;SDS011;669;50.206;9.998;2023-02-22T04:47:55;1.10;;;1.03;;
1350;SDS011;669;50.206;9.998;2023-02-22T04:50:23;1.40;;;1.10;;
1350;SDS011;669;50.206;9.998;2023-02-22T04:52:51;2.80;;;1.60;;
1350;SDS011;669;50.206;9.998;2023-02-22T04:55:19;1.97;;;1.60;;
1350;SDS011;669;50.206;9.998;2023-02-22T04:57:49;1.77;;;1.20;;
1350;SDS011;669;50.206;9.998;2023-02-22T05:00:17;1.73;;;1.13;;
1350;SDS011;669;50.206;9.998;2023-02-22T05:02:47;1.37;;;1.27;;
1350;SDS011;669;50.206;9.998;2023-02-22T05:05:16;1.23;;;1.10;;
1350;SDS011;669;50.206;9.998;2023-02-22T05:07:46;1.47;;;1.30;;
1350;SDS011;669;50.206;9.998;2023-02-22T05:10:14;0.80;;;0.80;;
1350;SDS011;669;50.206;9.998;2023-02-22T05:12:43;1.20;;;1.00;;
1350;SDS011;669;50.206;9.998;2023-02-22T05:15:15;1.10;;;1.10;;
1350;SDS011;669;50.206;9.998;2023-02-22T05:17:45;1.50;;;1.40;;
1350;SDS011;669;50.206;9.998;2023-02-22T05:20:15;1.23;;;1.13;;
1350;SDS011;669;50.206;9.998;2023-02-22T05:22:47;1.10;;;1.00;;
1350;SDS011;669;50.206;9.998;2023-02-22T05:25:17;1.60;;;1.20;;
1350;SDS011;669;50.206;9.998;2023-02-22T05:27:50;1.10;;;1.00;;
1350;SDS011;669;50.206;9.998;2023-02-22T05:30:20;1.17;;;1.07;;
1350;SDS011;669;50.206;9.998;2023-02-22T05:32:49;0.93;;;0.80;;
1350;SDS011;669;50.206;9.998;2023-02-22T05:35:18;0.90;;;0.90;;
1350;SDS011;669;50.206;9.998;2023-02-22T05:37:46;1.47;;;1.33;;
1350;SDS011;669;50.206;9.998;2023-02-22T05:40:17;1.53;;;1.00;;
1350;SDS011;669;50.206;9.998;2023-02-22T05:42:45;2.20;;;1.20;;
1350;SDS011;669;50.206;9.998;2023-02-22T05:45:14;3.27;;;1.50;;
1350;SDS011;669;50.206;9.998;2023-02-22T05:47:44;1.60;;;1.13;;
1350;SDS011;669;50.206;9.998;2023-02-22T05:50:12;1.60;;;1.50;;
1350;SDS011;669;50.206;9.998;2023-02-22T05:52:41;1.07;;;1.03;;
1350;SDS011;669;50.206;9.998;2023-02-22T05:55:09;1.63;;;1.13;;
1350;SDS011;669;50.206;9.998;2023-02-22T05:57:39;1.50;;;1.40;;
1350;SDS011;669;50.206;9.998;2023-02-22T06:00:08;1.60;;;1.50;;
1350;SDS011;669;50.206;9.998;2023-02-22T06:02:36;1.07;;;0.97;;
1350;SDS011;669;50.206;9.998;2023-02-22T06:05:06;1.30;;;1.20;;
1350;SDS011;669;50.206;9.998;2023-02-22T06:07:35;1.13;;;0.93;;
1350;SDS011;669;50.206;9.998;2023-02-22T06:10:03;1.17;;;1.10;;
1350;SDS011;669;50.206;9.998;2023-02-22T06:12:31;1.20;;;1.10;;
1350;SDS011;669;50.206;9.998;2023-02-22T06:14:59;1.17;;;1.07;;
1350;SDS011;669;50.206;9.998;2023-02-22T06:17:27;1.27;;;0.90;;
1350;SDS011;669;50.206;9.998;2023-02-22T06:19:55;3.23;;;1.67;;
1350;SDS011;669;50.206;9.998;2023-02-22T06:22:25;1.27;;;1.17;;
1350;SDS011;669;50.206;9.998;2023-02-22T06:24:53;1.07;;;1.07;;
1350;SDS011;669;50.206;9.998;2023-02-22T06:27:21;0.90;;;0.90;;
1350;SDS011;669;50.206;9.998;2023-02-22T06:29:48;1.10;;;1.07;;
1350;SDS011;669;50.206;9.998;2023-02-22T06:32:16;2.00;;;0.77;;
1350;SDS011;669;50.206;9.998;2023-02-22T06:34:44;1.80;;;1.17;;
1350;SDS011;669;50.206;9.998;2023-02-22T06:37:13;2.10;;;1.70;;
1350;SDS011;669;50.206;9.998;2023-02-22T06:39:43;2.57;;;1.40;;
1350;SDS011;669;50.206;9.998;2023-02-22T06:42:10;1.23;;;1.13;;
1350;SDS011;669;50.206;9.998;2023-02-22T06:44:39;1.47;;;1.30;;
1350;SDS011;669;50.206;9.998;2023-02-22T06:47:07;1.10;;;1.00;;
1350;SDS011;669;50.206;9.998;2023-02-22T06:49:35;3.37;;;1.83;;
1350;SDS011;669;50.206;9.998;2023-02-22T06:52:03;1.33;;;1.23;;
1350;SDS011;669;50.206;9.998;2023-02-22T06:54:31;1.10;;;1.10;;
1350;SDS011;669;50.206;9.998;2023-02-22T06:57:01;1.23;;;1.13;;
1350;SDS011;669;50.206;9.998;2023-02-22T06:59:29;1.73;;;1.30;;
1350;SDS011;669;50.206;9.998;2023-02-22T07:01:56;2.07;;;1.33;;
1350;SDS011;669;50.206;9.998;2023-02-22T07:04:25;1.93;;;1.77;;
1350;SDS011;669;50.206;9.998;2023-02-22T07:06:53;2.47;;;1.70;;
1350;SDS011;669;50.206;9.998;2023-02-22T07:09:21;1.93;;;1.60;;
1350;SDS011;669;50.206;9.998;2023-02-22T07:11:51;2.53;;;1.70;;
1350;SDS011;669;50.206;9.998;2023-02-22T07:14:20;1.37;;;1.27;;
1350;SDS011;669;50.206;9.998;2023-02-22T07:16:48;1.70;;;1.40;;
1350;SDS011;669;50.206;9.998;2023-02-22T07:19:16;1.70;;;1.40;;
1350;SDS011;669;50.206;9.998;2023-02-22T07:21:44;2.10;;;1.90;;
1350;SDS011;669;50.206;9.998;2023-02-22T07:24:13;1.50;;;1.40;;
1350;SDS011;669;50.206;9.998;2023-02-22T07:26:41;3.30;;;2.93;;
1350;SDS011;669;50.206;9.998;2023-02-22T07:29:09;3.27;;;1.70;;
1350;SDS011;669;50.206;9.998;2023-02-22T07:31:38;1.57;;;1.47;;
1350;SDS011;669;50.206;9.998;2023-02-22T07:34:06;4.00;;;1.83;;
1350;SDS011;669;50.206;9.998;2023-02-22T07:36:34;1.33;;;1.23;;
1350;SDS011;669;50.206;9.998;2023-02-22T07:39:02;1.27;;;1.17;;
1350;SDS011;669;50.206;9.998;2023-02-22T07:41:33;1.83;;;1.70;;
1350;SDS011;669;50.206;9.998;2023-02-22T07:44:02;2.33;;;1.80;;
1350;SDS011;669;50.206;9.998;2023-02-22T07:46:30;1.20;;;1.20;;
1350;SDS011;669;50.206;9.998;2023-02-22T07:49:00;1.40;;;1.30;;
1350;SDS011;669;50.206;9.998;2023-02-22T07:51:28;1.63;;;1.43;;
1350;SDS011;669;50.206;9.998;2023-02-22T07:53:56;1.53;;;1.40;;
1350;SDS011;669;50.206;9.998;2023-02-22T07:56:24;1.53;;;1.27;;
1350;SDS011;669;50.206;9.998;2023-02-22T07:58:52;2.03;;;1.50;;
1350;SDS011;669;50.206;9.998;2023-02-22T08:01:19;4.80;;;1.90;;
1350;SDS011;669;50.206;9.998;2023-02-22T08:03:47;2.30;;;1.60;;
1350;SDS011;669;50.206;9.998;2023-02-22T08:06:17;2.77;;;2.10;;
1350;SDS011;669;50.206;9.998;2023-02-22T08:08:46;3.47;;;2.20;;
1350;SDS011;669;50.206;9.998;2023-02-22T08:11:14;3.07;;;2.20;;
1350;SDS011;669;50.206;9.998;2023-02-22T08:13:42;3.73;;;3.43;;
1350;SDS011;669;50.206;9.998;2023-02-22T08:16:10;6.43;;;4.40;;
1350;SDS011;669;50.206;9.998;2023-02-22T08:18:38;4.23;;;3.83;;
1350;SDS011;669;50.206;9.998;2023-02-22T08:21:06;6.70;;;4.43;;
1350;SDS011;669;50.206;9.998;2023-02-22T08:23:36;5.00;;;3.77;;
1350;SDS011;669;50.206;9.998;2023-02-22T08:26:04;4.20;;;3.73;;
1350;SDS011;669;50.206;9.998;2023-02-22T08:28:33;4.70;;;4.27;;
1350;SDS011;669;50.206;9.998;2023-02-22T08:31:01;4.87;;;4.37;;
1350;SDS011;669;50.206;9.998;2023-02-22T08:33:32;5.73;;;5.10;;
1350;SDS011;669;50.206;9.998;2023-02-22T08:36:00;4.40;;;3.83;;
1350;SDS011;669;50.206;9.998;2023-02-22T08:38:29;5.30;;;4.60;;
1350;SDS011;669;50.206;9.998;2023-02-22T08:41:00;5.50;;;3.70;;
1350;SDS011;669;50.206;9.998;2023-02-22T08:43:28;4.80;;;4.13;;
1350;SDS011;669;50.206;9.998;2023-02-22T08:45:56;5.07;;;4.57;;
1350;SDS011;669;50.206;9.998;2023-02-22T08:48:24;3.93;;;3.53;;
1350;SDS011;669;50.206;9.998;2023-02-22T08:50:52;5.07;;;4.60;;
1350;SDS011;669;50.206;9.998;2023-02-22T08:53:20;5.00;;;4.50;;
1350;SDS011;669;50.206;9.998;2023-02-22T08:55:48;4.93;;;4.40;;
1350;SDS011;669;50.206;9.998;2023-02-22T08:58:17;4.03;;;3.60;;
1350;SDS011;669;50.206;9.998;2023-02-22T09:00:45;5.03;;;4.33;;
1350;SDS011;669;50.206;9.998;2023-02-22T09:03:14;4.90;;;4.10;;
1350;SDS011;669;50.206;9.998;2023-02-22T09:05:42;4.00;;;3.63;;
1350;SDS011;669;50.206;9.998;2023-02-22T09:08:10;5.03;;;4.33;;
1350;SDS011;669;50.206;9.998;2023-02-22T09:10:39;4.17;;;3.83;;
1350;SDS011;669;50.206;9.998;2023-02-22T09:13:07;3.43;;;3.13;;
1350;SDS011;669;50.206;9.998;2023-02-22T09:15:36;4.23;;;3.93;;
1350;SDS011;669;50.206;9.998;2023-02-22T09:18:06;4.60;;;3.73;;
1350;SDS011;669;50.206;9.998;2023-02-22T09:20:35;6.27;;;5.57;;
1350;SDS011;669;50.206;9.998;2023-02-22T09:23:04;8.43;;;4.23;;
1350;SDS011;669;50.206;9.998;2023-02-22T09:25:35;7.70;;;5.93;;
1350;SDS011;669;50.206;9.998;2023-02-22T09:28:04;7.53;;;5.80;;
1350;SDS011;669;50.206;9.998;2023-02-22T09:30:32;6.80;;;5.93;;
1350;SDS011;669;50.206;9.998;2023-02-22T09:33:04;6.40;;;5.10;;
1350;SDS011;669;50.206;9.998;2023-02-22T09:35:35;7.87;;;6.13;;
1350;SDS011;669;50.206;9.998;2023-02-22T09:38:07;8.77;;;6.77;;
1350;SDS011;669;50.206;9.998;2023-02-22T09:40:36;7.20;;;6.07;;
1350;SDS011;669;50.206;9.998;2023-02-22T09:43:17;6.87;;;5.70;;
1350;SDS011;669;50.206;9.998;2023-02-22T09:46:01;6.43;;;5.83;;
1350;SDS011;669;50.206;9.998;2023-02-22T09:48:39;6.60;;;5.50;;
1350;SDS011;669;50.206;9.998;2023-02-22T09:51:17;8.73;;;5.47;;
1350;SDS011;669;50.206;9.998;2023-02-22T09:53:47;7.67;;;6.20;;
1350;SDS011;669;50.206;9.998;2023-02-22T09:56:17;7.20;;;6.07;;
1350;SDS011;669;50.206;9.998;2023-02-22T09:58:47;6.97;;;6.07;;
1350;SDS011;669;50.206;9.998;2023-02-22T10:01:21;7.17;;;5.60;;
1350;SDS011;669;50.206;9.998;2023-02-22T10:03:57;7.07;;;6.33;;
1350;SDS011;669;50.206;9.998;2023-02-22T10:06:30;6.00;;;5.37;;
1350;SDS011;669;50.206;9.998;2023-02-22T10:09:00;8.27;;;6.53;;
1350;SDS011;669;50.206;9.998;2023-02-22T10:11:41;6.27;;;5.57;;
1350;SDS011;669;50.206;9.998;2023-02-22T10:17:10;6.17;;;5.57;;
1350;SDS011;669;50.206;9.998;2023-02-22T10:19:49;7.63;;;6.20;;
1350;SDS011;669;50.206;9.998;2023-02-22T10:22:31;5.13;;;4.63;;
1350;SDS011;669;50.206;9.998;2023-02-22T10:25:14;5.30;;;4.80;;
1350;SDS011;669;50.206;9.998;2023-02-22T10:27:46;6.80;;;5.83;;
1350;SDS011;669;50.206;9.998;2023-02-22T10:30:22;5.70;;;4.87;;
1350;SDS011;669;50.206;9.998;2023-02-22T10:32:54;6.27;;;5.67;;
1350;SDS011;669;50.206;9.998;2023-02-22T10:35:28;6.73;;;5.93;;
1350;SDS011;669;50.206;9.998;2023-02-22T10:38:01;7.67;;;6.57;;
1350;SDS011;669;50.206;9.998;2023-02-22T10:40:40;6.57;;;5.73;;
1350;SDS011;669;50.206;9.998;2023-02-22T10:43:12;6.93;;;6.13;;
1350;SDS011;669;50.206;9.998;2023-02-22T10:45:40;7.23;;;6.53;;
1350;SDS011;669;50.206;9.998;2023-02-22T10:48:09;8.10;;;6.73;;
1350;SDS011;669;50.206;9.998;2023-02-22T10:50:42;7.03;;;6.40;;
1350;SDS011;669;50.206;9.998;2023-02-22T10:53:12;7.60;;;6.43;;
1350;SDS011;669;50.206;9.998;2023-02-22T10:58:39;7.00;;;6.13;;
1350;SDS011;669;50.206;9.998;2023-02-22T11:01:19;6.67;;;5.90;;
1350;SDS011;669;50.206;9.998;2023-02-22T11:03:55;5.13;;;4.50;;
1350;SDS011;669;50.206;9.998;2023-02-22T11:06:30;5.40;;;4.90;;
1350;SDS011;669;50.206;9.998;2023-02-22T11:09:08;6.03;;;5.43;;
1350;SDS011;669;50.206;9.998;2023-02-22T11:11:38;5.33;;;4.53;;
1350;SDS011;669;50.206;9.998;2023-02-22T11:14:08;8.17;;;7.37;;
1350;SDS011;669;50.206;9.998;2023-02-22T11:16:37;6.20;;;5.20;;
1350;SDS011;669;50.206;9.998;2023-02-22T11:19:15;6.53;;;5.97;;
1350;SDS011;669;50.206;9.998;2023-02-22T11:21:50;5.70;;;5.13;;
1350;SDS011;669;50.206;9.998;2023-02-22T11:24:20;5.40;;;4.50;;
1350;SDS011;669;50.206;9.998;2023-02-22T11:26:58;6.37;;;5.83;;
1350;SDS011;669;50.206;9.998;2023-02-22T11:29:29;6.90;;;5.60;;
1350;SDS011;669;50.206;9.998;2023-02-22T11:32:00;5.20;;;4.70;;
1350;SDS011;669;50.206;9.998;2023-02-22T11:34:33;5.20;;;4.70;;
1350;SDS011;669;50.206;9.998;2023-02-22T11:37:22;6.83;;;5.10;;
1350;SDS011;669;50.206;9.998;2023-02-22T11:40:11;8.70;;;7.20;;
1350;SDS011;669;50.206;9.998;2023-02-22T11:42:45;7.10;;;6.40;;
1350;SDS011;669;50.206;9.998;2023-02-22T11:45:14;6.67;;;6.07;;
1350;SDS011;669;50.206;9.998;2023-02-22T11:47:47;7.27;;;6.37;;
1350;SDS011;669;50.206;9.998;2023-02-22T11:50:20;6.90;;;6.30;;
1350;SDS011;669;50.206;9.998;2023-02-22T11:52:59;9.77;;;7.33;;
1350;SDS011;669;50.206;9.998;2023-02-22T11:55:41;6.30;;;5.77;;
1350;SDS011;669;50.206;9.998;2023-02-22T11:58:20;7.60;;;6.70;;
1350;SDS011;669;50.206;9.998;2023-02-22T12:00:55;8.77;;;7.60;;
1350;SDS011;669;50.206;9.998;2023-02-22T12:03:39;9.07;;;8.13;;
1350;SDS011;669;50.206;9.998;2023-02-22T12:06:30;7.10;;;6.40;;
1350;SDS011;669;50.206;9.998;2023-02-22T12:09:11;7.17;;;6.37;;
1350;SDS011;669;50.206;9.998;2023-02-22T12:11:46;7.53;;;6.70;;
1350;SDS011;669;50.206;9.998;2023-02-22T12:14:25;6.00;;;5.40;;
1350;SDS011;669;50.206;9.998;2023-02-22T12:19:50;6.03;;;5.53;;
1350;SDS011;669;50.206;9.998;2023-02-22T12:22:22;6.80;;;6.27;;
1350;SDS011;669;50.206;9.998;2023-02-22T12:24:57;7.20;;;6.50;;
1350;SDS011;669;50.206;9.998;2023-02-22T12:27:35;6.77;;;5.53;;
1350;SDS011;669;50.206;9.998;2023-02-22T12:30:10;7.87;;;7.13;;
1350;SDS011;669;50.206;9.998;2023-02-22T12:32:43;7.00;;;6.25;;
1350;SDS011;669;50.206;9.998;2023-02-22T12:35:18;7.03;;;6.33;;
1350;SDS011;669;50.206;9.998;2023-02-22T12:37:55;5.23;;;4.67;;
1350;SDS011;669;50.206;9.998;2023-02-22T12:40:32;7.03;;;6.30;;
1350;SDS011;669;50.206;9.998;2023-02-22T12:43:05;7.03;;;6.33;;
1350;SDS011;669;50.206;9.998;2023-02-22T12:45:42;6.20;;;5.60;;
1350;SDS011;669;50.206;9.998;2023-02-22T12:48:29;6.90;;;5.63;;
1350;SDS011;669;50.206;9.998;2023-02-22T12:51:08;4.83;;;4.43;;
1350;SDS011;669;50.206;9.998;2023-02-22T12:53:48;7.43;;;6.50;;
1350;SDS011;669;50.206;9.998;2023-02-22T12:56:29;6.80;;;6.10;;
1350;SDS011;669;50.206;9.998;2023-02-22T12:59:02;6.27;;;5.63;;
1350;SDS011;669;50.206;9.998;2023-02-22T13:01:35;6.10;;;5.50;;
1350;SDS011;669;50.206;9.998;2023-02-22T13:04:05;5.90;;;5.40;;
1350;SDS011;669;50.206;9.998;2023-02-22T13:06:48;7.47;;;6.77;;
1350;SDS011;669;50.206;9.998;2023-02-22T13:09:33;5.63;;;5.07;;
1350;SDS011;669;50.206;9.998;2023-02-22T13:12:15;5.07;;;4.60;;
1350;SDS011;669;50.206;9.998;2023-02-22T13:14:51;5.30;;;4.80;;
1350;SDS011;669;50.206;9.998;2023-02-22T13:17:27;4.83;;;4.33;;
1350;SDS011;669;50.206;9.998;2023-02-22T13:20:05;5.90;;;4.23;;
1350;SDS011;669;50.206;9.998;2023-02-22T13:22:41;5.90;;;5.30;;
1350;SDS011;669;50.206;9.998;2023-02-22T13:25:13;6.37;;;5.77;;
1350;SDS011;669;50.206;9.998;2023-02-22T13:27:49;6.17;;;5.67;;
1350;SDS011;669;50.206;9.998;2023-02-22T13:30:34;5.47;;;4.97;;
1350;SDS011;669;50.206;9.998;2023-02-22T13:33:15;3.83;;;3.53;;
1350;SDS011;669;50.206;9.998;2023-02-22T13:36:06;4.23;;;3.83;;
1350;SDS011;669;50.206;9.998;2023-02-22T13:38:53;7.03;;;6.33;;
1350;SDS011;669;50.206;9.998;2023-02-22T13:41:50;6.10;;;5.27;;
1350;SDS011;669;50.206;9.998;2023-02-22T13:44:41;8.13;;;6.30;;
1350;SDS011;669;50.206;9.998;2023-02-22T13:47:25;5.13;;;4.63;;
1350;SDS011;669;50.206;9.998;2023-02-22T13:50:25;4.90;;;4.37;;
1350;SDS011;669;50.206;9.998;2023-02-22T13:53:15;7.40;;;5.23;;
1350;SDS011;669;50.206;9.998;2023-02-22T13:55:51;4.30;;;3.90;;
1350;SDS011;669;50.206;9.998;2023-02-22T13:58:22;4.10;;;3.80;;
1350;SDS011;669;50.206;9.998;2023-02-22T14:00:53;4.90;;;4.20;;
1350;SDS011;669;50.206;9.998;2023-02-22T14:03:32;3.60;;;3.30;;
1350;SDS011;669;50.206;9.998;2023-02-22T14:06:07;3.53;;;3.23;;
1350;SDS011;669;50.206;9.998;2023-02-22T14:08:37;5.73;;;5.13;;
1350;SDS011;669;50.206;9.998;2023-02-22T14:14:23;5.23;;;4.63;;
1350;SDS011;669;50.206;9.998;2023-02-22T14:20:03;4.50;;;4.10;;
1350;SDS011;669;50.206;9.998;2023-02-22T14:22:45;4.53;;;4.10;;
1350;SDS011;669;50.206;9.998;2023-02-22T14:25:28;5.07;;;4.50;;
1350;SDS011;669;50.206;9.998;2023-02-22T14:28:02;4.50;;;4.10;;
1350;SDS011;669;50.206;9.998;2023-02-22T14:30:32;6.30;;;4.10;;
1350;SDS011;669;50.206;9.998;2023-02-22T14:33:03;4.33;;;3.97;;
1350;SDS011;669;50.206;9.998;2023-02-22T14:36:09;3.97;;;3.57;;
1350;SDS011;669;50.206;9.998;2023-02-22T14:38:38;5.00;;;4.50;;
1350;SDS011;669;50.206;9.998;2023-02-22T14:41:07;4.97;;;4.50;;
1350;SDS011;669;50.206;9.998;2023-02-22T14:43:35;5.77;;;5.27;;
1350;SDS011;669;50.206;9.998;2023-02-22T14:46:05;5.33;;;4.83;;
1350;SDS011;669;50.206;9.998;2023-02-22T14:48:40;6.40;;;5.80;;
1350;SDS011;669;50.206;9.998;2023-02-22T14:51:12;4.43;;;4.03;;
1350;SDS011;669;50.206;9.998;2023-02-22T14:53:48;5.23;;;4.07;;
1350;SDS011;669;50.206;9.998;2023-02-22T14:56:21;5.37;;;4.83;;
1350;SDS011;669;50.206;9.998;2023-02-22T14:58:53;4.27;;;3.60;;
1350;SDS011;669;50.206;9.998;2023-02-22T15:01:26;3.80;;;3.50;;
1350;SDS011;669;50.206;9.998;2023-02-22T15:04:19;4.60;;;3.70;;
1350;SDS011;669;50.206;9.998;2023-02-22T15:06:48;4.33;;;3.93;;
1350;SDS011;669;50.206;9.998;2023-02-22T15:09:18;5.10;;;4.60;;
1350;SDS011;669;50.206;9.998;2023-02-22T15:11:56;4.83;;;4.33;;
1350;SDS011;669;50.206;9.998;2023-02-22T15:14:38;3.93;;;3.60;;
1350;SDS011;669;50.206;9.998;2023-02-22T15:17:12;3.87;;;3.57;;
1350;SDS011;669;50.206;9.998;2023-02-22T15:19:47;6.13;;;4.90;;
1350;SDS011;669;50.206;9.998;2023-02-22T15:22:20;5.63;;;4.77;;
1350;SDS011;669;50.206;9.998;2023-02-22T15:24:55;5.90;;;5.33;;
1350;SDS011;669;50.206;9.998;2023-02-22T15:27:25;6.70;;;5.97;;
1350;SDS011;669;50.206;9.998;2023-02-22T15:29:56;4.73;;;3.80;;
1350;SDS011;669;50.206;9.998;2023-02-22T15:32:30;4.50;;;4.10;;
1350;SDS011;669;50.206;9.998;2023-02-22T15:35:26;4.17;;;3.83;;
1350;SDS011;669;50.206;9.998;2023-02-22T15:37:57;3.63;;;3.33;;
1350;SDS011;669;50.206;9.998;2023-02-22T15:40:26;3.07;;;2.87;;
1350;SDS011;669;50.206;9.998;2023-02-22T15:42:59;5.00;;;3.10;;
1350;SDS011;669;50.206;9.998;2023-02-22T15:45:28;3.03;;;2.73;;
1350;SDS011;669;50.206;9.998;2023-02-22T15:47:58;3.97;;;2.93;;
1350;SDS011;669;50.206;9.998;2023-02-22T15:50:28;2.33;;;2.13;;
1350;SDS011;669;50.206;9.998;2023-02-22T15:52:59;3.23;;;2.90;;
1350;SDS011;669;50.206;9.998;2023-02-22T15:55:29;2.30;;;1.87;;
1350;SDS011;669;50.206;9.998;2023-02-22T15:58:06;2.50;;;2.30;;
1350;SDS011;669;50.206;9.998;2023-02-22T16:00:36;2.50;;;2.30;;
1350;SDS011;669;50.206;9.998;2023-02-22T16:03:07;2.67;;;2.47;;
1350;SDS011;669;50.206;9.998;2023-02-22T16:05:39;2.03;;;1.93;;
1350;SDS011;669;50.206;9.998;2023-02-22T16:08:12;2.03;;;1.93;;
1350;SDS011;669;50.206;9.998;2023-02-22T16:10:45;2.00;;;1.90;;
1350;SDS011;669;50.206;9.998;2023-02-22T16:13:19;1.97;;;1.87;;
1350;SDS011;669;50.206;9.998;2023-02-22T16:15:59;2.50;;;2.30;;
1350;SDS011;669;50.206;9.998;2023-02-22T16:18:29;2.33;;;2.17;;
1350;SDS011;669;50.206;9.998;2023-02-22T16:21:05;1.73;;;1.63;;
1350;SDS011;669;50.206;9.998;2023-02-22T16:23:44;2.40;;;2.20;;